Athol, Pennsylvania
Current Conditions -  °F | °C
As of 12:54 AM on Saturday 20 Dec 2014 (Local Time) from KPTW Reporting Station
Overcast Overcast  
Wind Chill: -2°   Ceiling: 3200
Heat Index:   Visibility: 10mi
Dew Point: -6°   Wind: 6mph
Humidity: 61%   Direction: 340°NNW
Pressure: 30.19"   Gusts: NA
Location:  40.3194°N, 75.7364°W
Report Text: KPTW 200554Z AUTO 34005KT 10SM OVC032 01/M06 A3019 RMK AO2 SLP224 T00061061 10006 20000 58003
Loading
Personal Weather Stations






























Interactive Weather Map New forecast layout! Learn more

10-Day Weather Forecast

Advertisements
Track Severe Weather on mobile